sensor_id;sensor_type;location;lat;lon;timestamp;P1;durP1;ratioP1;P2;durP2;ratioP2
1014;SDS011;8170;48.118;11.628;2023-03-01T00:02:01;23.95;;;17.38;;
1014;SDS011;8170;48.118;11.628;2023-03-01T00:03:39;24.83;;;19.05;;
1014;SDS011;8170;48.118;11.628;2023-03-01T00:05:12;25.25;;;19.10;;
1014;SDS011;8170;48.118;11.628;2023-03-01T00:07:48;25.88;;;18.17;;
1014;SDS011;8170;48.118;11.628;2023-03-01T00:09:47;24.52;;;17.10;;
1014;SDS011;8170;48.118;11.628;2023-03-01T00:11:57;24.75;;;17.65;;
1014;SDS011;8170;48.118;11.628;2023-03-01T00:14:04;25.92;;;19.70;;
1014;SDS011;8170;48.118;11.628;2023-03-01T00:17:47;23.40;;;18.00;;
1014;SDS011;8170;48.118;11.628;2023-03-01T00:18:10;24.73;;;18.85;;
1014;SDS011;8170;48.118;11.628;2023-03-01T00:19:58;23.92;;;17.98;;
1014;SDS011;8170;48.118;11.628;2023-03-01T00:22:21;24.75;;;19.35;;
1014;SDS011;8170;48.118;11.628;2023-03-01T00:26:23;21.30;;;17.23;;
1014;SDS011;8170;48.118;11.628;2023-03-01T00:28:23;25.00;;;19.10;;
1014;SDS011;8170;48.118;11.628;2023-03-01T00:30:25;25.30;;;17.95;;
1014;SDS011;8170;48.118;11.628;2023-03-01T00:32:34;24.10;;;18.65;;
1014;SDS011;8170;48.118;11.628;2023-03-01T00:34:32;24.33;;;18.45;;
1014;SDS011;8170;48.118;11.628;2023-03-01T00:36:40;24.40;;;17.15;;
1014;SDS011;8170;48.118;11.628;2023-03-01T00:38:46;24.42;;;18.40;;
1014;SDS011;8170;48.118;11.628;2023-03-01T00:39:55;23.52;;;18.50;;
1014;SDS011;8170;48.118;11.628;2023-03-01T00:41:02;26.38;;;20.02;;
1014;SDS011;8170;48.118;11.628;2023-03-01T00:42:06;25.38;;;18.67;;
1014;SDS011;8170;48.118;11.628;2023-03-01T00:43:08;26.15;;;19.30;;
1014;SDS011;8170;48.118;11.628;2023-03-01T00:44:11;22.48;;;18.73;;
1014;SDS011;8170;48.118;11.628;2023-03-01T00:45:13;22.80;;;18.25;;
1014;SDS011;8170;48.118;11.628;2023-03-01T00:46:17;26.20;;;18.67;;
1014;SDS011;8170;48.118;11.628;2023-03-01T00:47:21;29.13;;;20.40;;
1014;SDS011;8170;48.118;11.628;2023-03-01T00:48:24;26.27;;;19.35;;
1014;SDS011;8170;48.118;11.628;2023-03-01T00:49:27;23.83;;;19.70;;
1014;SDS011;8170;48.118;11.628;2023-03-01T00:50:31;24.20;;;18.98;;
1014;SDS011;8170;48.118;11.628;2023-03-01T00:51:33;24.90;;;19.05;;
1014;SDS011;8170;48.118;11.628;2023-03-01T00:52:36;25.50;;;19.05;;
1014;SDS011;8170;48.118;11.628;2023-03-01T00:53:39;28.33;;;19.77;;
1014;SDS011;8170;48.118;11.628;2023-03-01T00:54:42;24.60;;;18.40;;
1014;SDS011;8170;48.118;11.628;2023-03-01T00:55:45;24.40;;;18.92;;
1014;SDS011;8170;48.118;11.628;2023-03-01T00:56:48;26.23;;;20.23;;
1014;SDS011;8170;48.118;11.628;2023-03-01T00:57:50;24.95;;;19.95;;
1014;SDS011;8170;48.118;11.628;2023-03-01T00:58:53;22.67;;;17.20;;
1014;SDS011;8170;48.118;11.628;2023-03-01T00:59:55;22.63;;;18.15;;
1014;SDS011;8170;48.118;11.628;2023-03-01T01:00:59;23.95;;;18.23;;
1014;SDS011;8170;48.118;11.628;2023-03-01T01:02:02;24.42;;;18.05;;
1014;SDS011;8170;48.118;11.628;2023-03-01T01:03:05;24.55;;;18.75;;
1014;SDS011;8170;48.118;11.628;2023-03-01T01:04:08;25.15;;;18.95;;
1014;SDS011;8170;48.118;11.628;2023-03-01T01:05:14;24.50;;;18.80;;
1014;SDS011;8170;48.118;11.628;2023-03-01T01:06:17;22.95;;;19.25;;
1014;SDS011;8170;48.118;11.628;2023-03-01T01:07:21;23.50;;;18.88;;
1014;SDS011;8170;48.118;11.628;2023-03-01T01:08:23;23.30;;;18.15;;
1014;SDS011;8170;48.118;11.628;2023-03-01T01:09:27;25.48;;;19.48;;
1014;SDS011;8170;48.118;11.628;2023-03-01T01:10:29;25.23;;;19.05;;
1014;SDS011;8170;48.118;11.628;2023-03-01T01:11:32;28.08;;;19.33;;
1014;SDS011;8170;48.118;11.628;2023-03-01T01:12:36;22.15;;;17.98;;
1014;SDS011;8170;48.118;11.628;2023-03-01T01:13:39;23.48;;;18.33;;
1014;SDS011;8170;48.118;11.628;2023-03-01T01:14:42;25.27;;;19.50;;
1014;SDS011;8170;48.118;11.628;2023-03-01T01:15:45;23.75;;;18.52;;
1014;SDS011;8170;48.118;11.628;2023-03-01T01:16:48;25.17;;;18.63;;
1014;SDS011;8170;48.118;11.628;2023-03-01T01:17:51;26.20;;;19.50;;
1014;SDS011;8170;48.118;11.628;2023-03-01T01:18:53;24.30;;;19.70;;
1014;SDS011;8170;48.118;11.628;2023-03-01T01:19:56;24.42;;;18.40;;
1014;SDS011;8170;48.118;11.628;2023-03-01T01:21:03;26.15;;;19.42;;
1014;SDS011;8170;48.118;11.628;2023-03-01T01:22:08;29.88;;;19.27;;
1014;SDS011;8170;48.118;11.628;2023-03-01T01:23:10;25.67;;;19.60;;
1014;SDS011;8170;48.118;11.628;2023-03-01T01:24:14;23.45;;;17.75;;
1014;SDS011;8170;48.118;11.628;2023-03-01T01:25:17;23.33;;;18.77;;
1014;SDS011;8170;48.118;11.628;2023-03-01T01:26:20;25.08;;;20.10;;
1014;SDS011;8170;48.118;11.628;2023-03-01T01:27:24;26.52;;;19.35;;
1014;SDS011;8170;48.118;11.628;2023-03-01T01:28:26;22.27;;;17.85;;
1014;SDS011;8170;48.118;11.628;2023-03-01T01:29:30;23.95;;;17.70;;
1014;SDS011;8170;48.118;11.628;2023-03-01T01:30:32;29.25;;;20.05;;
1014;SDS011;8170;48.118;11.628;2023-03-01T01:31:35;25.50;;;19.60;;
1014;SDS011;8170;48.118;11.628;2023-03-01T01:32:38;26.27;;;18.92;;
1014;SDS011;8170;48.118;11.628;2023-03-01T01:33:41;23.25;;;19.13;;
1014;SDS011;8170;48.118;11.628;2023-03-01T01:34:44;21.80;;;17.52;;
1014;SDS011;8170;48.118;11.628;2023-03-01T01:35:52;29.85;;;19.60;;
1014;SDS011;8170;48.118;11.628;2023-03-01T01:37:01;23.95;;;18.77;;
1014;SDS011;8170;48.118;11.628;2023-03-01T01:38:04;26.60;;;18.88;;
1014;SDS011;8170;48.118;11.628;2023-03-01T01:39:06;25.13;;;18.40;;
1014;SDS011;8170;48.118;11.628;2023-03-01T01:40:14;25.92;;;19.02;;
1014;SDS011;8170;48.118;11.628;2023-03-01T01:41:16;23.55;;;19.30;;
1014;SDS011;8170;48.118;11.628;2023-03-01T01:42:20;21.75;;;17.85;;
1014;SDS011;8170;48.118;11.628;2023-03-01T01:43:23;23.83;;;18.90;;
1014;SDS011;8170;48.118;11.628;2023-03-01T01:44:27;24.52;;;19.10;;
1014;SDS011;8170;48.118;11.628;2023-03-01T01:45:32;25.77;;;20.40;;
1014;SDS011;8170;48.118;11.628;2023-03-01T01:46:36;26.75;;;20.80;;
1014;SDS011;8170;48.118;11.628;2023-03-01T01:47:41;23.95;;;19.02;;
1014;SDS011;8170;48.118;11.628;2023-03-01T01:48:45;27.17;;;19.55;;
1014;SDS011;8170;48.118;11.628;2023-03-01T01:49:52;24.63;;;18.38;;
1014;SDS011;8170;48.118;11.628;2023-03-01T01:50:58;26.98;;;19.23;;
1014;SDS011;8170;48.118;11.628;2023-03-01T01:52:07;27.02;;;20.63;;
1014;SDS011;8170;48.118;11.628;2023-03-01T01:53:16;24.45;;;20.23;;
1014;SDS011;8170;48.118;11.628;2023-03-01T01:54:21;21.67;;;18.85;;
1014;SDS011;8170;48.118;11.628;2023-03-01T01:55:28;23.10;;;18.67;;
1014;SDS011;8170;48.118;11.628;2023-03-01T01:56:30;23.27;;;19.10;;
1014;SDS011;8170;48.118;11.628;2023-03-01T01:57:34;23.10;;;19.05;;
1014;SDS011;8170;48.118;11.628;2023-03-01T01:58:39;24.17;;;18.60;;
1014;SDS011;8170;48.118;11.628;2023-03-01T01:59:54;24.83;;;19.33;;
1014;SDS011;8170;48.118;11.628;2023-03-01T02:01:01;27.33;;;20.35;;
1014;SDS011;8170;48.118;11.628;2023-03-01T02:02:04;24.30;;;19.48;;
1014;SDS011;8170;48.118;11.628;2023-03-01T02:03:08;24.80;;;19.27;;
1014;SDS011;8170;48.118;11.628;2023-03-01T02:04:14;23.75;;;18.13;;
1014;SDS011;8170;48.118;11.628;2023-03-01T02:05:18;25.45;;;18.67;;
1014;SDS011;8170;48.118;11.628;2023-03-01T02:06:29;24.00;;;19.35;;
1014;SDS011;8170;48.118;11.628;2023-03-01T02:07:35;26.10;;;20.48;;
1014;SDS011;8170;48.118;11.628;2023-03-01T02:08:40;27.10;;;19.42;;
1014;SDS011;8170;48.118;11.628;2023-03-01T02:09:44;28.10;;;20.33;;
1014;SDS011;8170;48.118;11.628;2023-03-01T02:10:49;25.23;;;19.27;;
1014;SDS011;8170;48.118;11.628;2023-03-01T02:11:53;24.13;;;18.85;;
1014;SDS011;8170;48.118;11.628;2023-03-01T02:12:56;24.25;;;20.02;;
1014;SDS011;8170;48.118;11.628;2023-03-01T02:13:59;27.58;;;19.25;;
1014;SDS011;8170;48.118;11.628;2023-03-01T02:15:04;23.60;;;19.55;;
1014;SDS011;8170;48.118;11.628;2023-03-01T02:16:08;24.27;;;19.48;;
1014;SDS011;8170;48.118;11.628;2023-03-01T02:17:13;23.05;;;18.65;;
1014;SDS011;8170;48.118;11.628;2023-03-01T02:18:18;25.95;;;19.90;;
1014;SDS011;8170;48.118;11.628;2023-03-01T02:19:27;23.42;;;18.38;;
1014;SDS011;8170;48.118;11.628;2023-03-01T02:20:44;25.95;;;18.27;;
1014;SDS011;8170;48.118;11.628;2023-03-01T02:21:59;24.55;;;18.92;;
1014;SDS011;8170;48.118;11.628;2023-03-01T02:23:09;26.10;;;19.55;;
1014;SDS011;8170;48.118;11.628;2023-03-01T02:24:15;27.17;;;20.95;;
1014;SDS011;8170;48.118;11.628;2023-03-01T02:25:29;26.27;;;20.02;;
1014;SDS011;8170;48.118;11.628;2023-03-01T02:26:40;25.15;;;18.50;;
1014;SDS011;8170;48.118;11.628;2023-03-01T02:27:48;24.85;;;18.55;;
1014;SDS011;8170;48.118;11.628;2023-03-01T02:29:00;24.77;;;19.17;;
1014;SDS011;8170;48.118;11.628;2023-03-01T02:30:03;24.83;;;20.73;;
1014;SDS011;8170;48.118;11.628;2023-03-01T02:31:08;25.05;;;19.08;;
1014;SDS011;8170;48.118;11.628;2023-03-01T02:32:30;23.65;;;18.30;;
1014;SDS011;8170;48.118;11.628;2023-03-01T02:33:35;25.98;;;18.80;;
1014;SDS011;8170;48.118;11.628;2023-03-01T02:34:39;26.27;;;19.80;;
1014;SDS011;8170;48.118;11.628;2023-03-01T02:35:42;27.20;;;19.10;;
1014;SDS011;8170;48.118;11.628;2023-03-01T02:36:45;23.92;;;19.17;;
1014;SDS011;8170;48.118;11.628;2023-03-01T02:37:50;24.45;;;19.20;;
1014;SDS011;8170;48.118;11.628;2023-03-01T02:38:53;25.85;;;19.45;;
1014;SDS011;8170;48.118;11.628;2023-03-01T02:40:01;23.52;;;18.20;;
1014;SDS011;8170;48.118;11.628;2023-03-01T02:41:07;24.58;;;19.48;;
1014;SDS011;8170;48.118;11.628;2023-03-01T02:42:13;23.48;;;18.45;;
1014;SDS011;8170;48.118;11.628;2023-03-01T02:43:19;25.33;;;20.08;;
1014;SDS011;8170;48.118;11.628;2023-03-01T02:44:29;24.85;;;19.45;;
1014;SDS011;8170;48.118;11.628;2023-03-01T02:45:31;26.48;;;19.35;;
1014;SDS011;8170;48.118;11.628;2023-03-01T02:46:41;22.60;;;18.60;;
1014;SDS011;8170;48.118;11.628;2023-03-01T02:47:45;24.08;;;18.85;;
1014;SDS011;8170;48.118;11.628;2023-03-01T02:48:49;24.63;;;19.42;;
1014;SDS011;8170;48.118;11.628;2023-03-01T02:49:52;27.52;;;20.13;;
1014;SDS011;8170;48.118;11.628;2023-03-01T02:51:01;26.33;;;19.02;;
1014;SDS011;8170;48.118;11.628;2023-03-01T02:52:15;23.15;;;18.67;;
1014;SDS011;8170;48.118;11.628;2023-03-01T02:53:27;22.55;;;18.20;;
1014;SDS011;8170;48.118;11.628;2023-03-01T02:54:35;22.30;;;18.35;;
1014;SDS011;8170;48.118;11.628;2023-03-01T02:55:42;25.23;;;19.08;;
1014;SDS011;8170;48.118;11.628;2023-03-01T02:56:44;24.35;;;19.00;;
1014;SDS011;8170;48.118;11.628;2023-03-01T02:57:51;24.73;;;19.45;;
1014;SDS011;8170;48.118;11.628;2023-03-01T02:58:55;24.52;;;18.58;;
1014;SDS011;8170;48.118;11.628;2023-03-01T03:00:05;26.52;;;19.95;;
1014;SDS011;8170;48.118;11.628;2023-03-01T03:01:10;23.42;;;20.02;;
1014;SDS011;8170;48.118;11.628;2023-03-01T03:02:18;23.38;;;19.75;;
1014;SDS011;8170;48.118;11.628;2023-03-01T03:03:23;25.02;;;18.23;;
1014;SDS011;8170;48.118;11.628;2023-03-01T03:04:26;25.67;;;19.30;;
1014;SDS011;8170;48.118;11.628;2023-03-01T03:05:29;23.33;;;19.40;;
1014;SDS011;8170;48.118;11.628;2023-03-01T03:06:33;27.48;;;19.27;;
1014;SDS011;8170;48.118;11.628;2023-03-01T03:07:36;23.88;;;18.80;;
1014;SDS011;8170;48.118;11.628;2023-03-01T03:08:41;23.08;;;19.02;;
1014;SDS011;8170;48.118;11.628;2023-03-01T03:09:43;22.67;;;17.67;;
1014;SDS011;8170;48.118;11.628;2023-03-01T03:10:46;25.55;;;20.58;;
1014;SDS011;8170;48.118;11.628;2023-03-01T03:11:48;21.88;;;18.63;;
1014;SDS011;8170;48.118;11.628;2023-03-01T03:12:52;23.10;;;19.02;;
1014;SDS011;8170;48.118;11.628;2023-03-01T03:13:56;23.45;;;18.67;;
1014;SDS011;8170;48.118;11.628;2023-03-01T03:14:59;23.40;;;18.55;;
1014;SDS011;8170;48.118;11.628;2023-03-01T03:16:02;24.40;;;18.92;;
1014;SDS011;8170;48.118;11.628;2023-03-01T03:17:06;26.08;;;20.25;;
1014;SDS011;8170;48.118;11.628;2023-03-01T03:18:09;23.30;;;18.20;;
1014;SDS011;8170;48.118;11.628;2023-03-01T03:19:15;25.48;;;19.27;;
1014;SDS011;8170;48.118;11.628;2023-03-01T03:20:18;24.83;;;18.65;;
1014;SDS011;8170;48.118;11.628;2023-03-01T03:21:23;22.10;;;18.50;;
1014;SDS011;8170;48.118;11.628;2023-03-01T03:22:25;24.08;;;18.52;;
1014;SDS011;8170;48.118;11.628;2023-03-01T03:23:30;24.85;;;18.80;;
1014;SDS011;8170;48.118;11.628;2023-03-01T03:24:32;22.60;;;19.40;;
1014;SDS011;8170;48.118;11.628;2023-03-01T03:25:39;24.02;;;19.02;;
1014;SDS011;8170;48.118;11.628;2023-03-01T03:26:41;28.67;;;19.85;;
1014;SDS011;8170;48.118;11.628;2023-03-01T03:27:46;23.80;;;19.30;;
1014;SDS011;8170;48.118;11.628;2023-03-01T03:28:49;24.35;;;18.92;;
1014;SDS011;8170;48.118;11.628;2023-03-01T03:29:52;25.13;;;19.95;;
1014;SDS011;8170;48.118;11.628;2023-03-01T03:30:54;22.40;;;18.02;;
1014;SDS011;8170;48.118;11.628;2023-03-01T03:31:59;22.65;;;18.83;;
1014;SDS011;8170;48.118;11.628;2023-03-01T03:33:01;25.08;;;19.95;;
1014;SDS011;8170;48.118;11.628;2023-03-01T03:34:05;22.13;;;17.85;;
1014;SDS011;8170;48.118;11.628;2023-03-01T03:35:07;26.38;;;19.60;;
1014;SDS011;8170;48.118;11.628;2023-03-01T03:36:14;25.15;;;19.85;;
1014;SDS011;8170;48.118;11.628;2023-03-01T03:37:19;23.50;;;19.80;;
1014;SDS011;8170;48.118;11.628;2023-03-01T03:38:35;30.58;;;20.13;;
1014;SDS011;8170;48.118;11.628;2023-03-01T03:39:39;26.50;;;19.30;;
1014;SDS011;8170;48.118;11.628;2023-03-01T03:40:41;26.10;;;19.27;;
1014;SDS011;8170;48.118;11.628;2023-03-01T03:41:45;25.88;;;19.80;;
1014;SDS011;8170;48.118;11.628;2023-03-01T03:42:48;25.17;;;19.00;;
1014;SDS011;8170;48.118;11.628;2023-03-01T03:43:50;27.73;;;20.50;;
1014;SDS011;8170;48.118;11.628;2023-03-01T03:44:53;25.88;;;19.08;;
1014;SDS011;8170;48.118;11.628;2023-03-01T03:45:55;27.10;;;18.92;;
1014;SDS011;8170;48.118;11.628;2023-03-01T03:47:00;25.30;;;19.92;;
1014;SDS011;8170;48.118;11.628;2023-03-01T03:48:03;24.13;;;20.38;;
1014;SDS011;8170;48.118;11.628;2023-03-01T03:49:07;25.70;;;19.98;;
1014;SDS011;8170;48.118;11.628;2023-03-01T03:50:11;24.52;;;19.65;;
1014;SDS011;8170;48.118;11.628;2023-03-01T03:51:15;24.52;;;19.52;;
1014;SDS011;8170;48.118;11.628;2023-03-01T03:52:19;25.15;;;18.92;;
1014;SDS011;8170;48.118;11.628;2023-03-01T03:53:21;24.30;;;19.92;;
1014;SDS011;8170;48.118;11.628;2023-03-01T03:54:26;25.98;;;19.88;;
1014;SDS011;8170;48.118;11.628;2023-03-01T03:55:28;25.05;;;19.35;;
1014;SDS011;8170;48.118;11.628;2023-03-01T03:56:32;25.15;;;20.00;;
1014;SDS011;8170;48.118;11.628;2023-03-01T03:57:34;25.50;;;19.15;;
1014;SDS011;8170;48.118;11.628;2023-03-01T03:58:37;27.35;;;20.80;;
1014;SDS011;8170;48.118;11.628;2023-03-01T03:59:40;24.42;;;19.48;;
1014;SDS011;8170;48.118;11.628;2023-03-01T04:00:43;25.00;;;18.92;;
1014;SDS011;8170;48.118;11.628;2023-03-01T04:01:46;26.65;;;19.48;;
1014;SDS011;8170;48.118;11.628;2023-03-01T04:02:51;26.55;;;21.23;;
1014;SDS011;8170;48.118;11.628;2023-03-01T04:03:57;24.10;;;19.15;;
1014;SDS011;8170;48.118;11.628;2023-03-01T04:05:05;24.60;;;19.38;;
1014;SDS011;8170;48.118;11.628;2023-03-01T04:06:09;24.70;;;19.65;;
1014;SDS011;8170;48.118;11.628;2023-03-01T04:07:12;26.90;;;19.60;;
1014;SDS011;8170;48.118;11.628;2023-03-01T04:08:14;23.15;;;19.20;;
1014;SDS011;8170;48.118;11.628;2023-03-01T04:09:17;24.35;;;19.35;;
1014;SDS011;8170;48.118;11.628;2023-03-01T04:10:19;24.50;;;18.90;;
1014;SDS011;8170;48.118;11.628;2023-03-01T04:11:22;25.33;;;19.30;;
1014;SDS011;8170;48.118;11.628;2023-03-01T04:12:27;25.67;;;19.55;;
1014;SDS011;8170;48.118;11.628;2023-03-01T04:13:31;25.55;;;20.48;;
1014;SDS011;8170;48.118;11.628;2023-03-01T04:14:33;26.30;;;19.70;;
1014;SDS011;8170;48.118;11.628;2023-03-01T04:15:36;28.85;;;20.80;;
1014;SDS011;8170;48.118;11.628;2023-03-01T04:16:39;25.92;;;20.15;;
1014;SDS011;8170;48.118;11.628;2023-03-01T04:17:43;24.35;;;20.23;;
1014;SDS011;8170;48.118;11.628;2023-03-01T04:18:47;27.60;;;19.70;;
1014;SDS011;8170;48.118;11.628;2023-03-01T04:19:50;26.38;;;20.45;;
1014;SDS011;8170;48.118;11.628;2023-03-01T04:20:53;26.38;;;18.98;;
1014;SDS011;8170;48.118;11.628;2023-03-01T04:21:56;24.35;;;19.70;;
1014;SDS011;8170;48.118;11.628;2023-03-01T04:23:00;28.30;;;20.30;;
1014;SDS011;8170;48.118;11.628;2023-03-01T04:24:11;26.35;;;18.75;;
1014;SDS011;8170;48.118;11.628;2023-03-01T04:25:14;27.17;;;20.45;;
1014;SDS011;8170;48.118;11.628;2023-03-01T04:26:17;27.33;;;21.30;;
1014;SDS011;8170;48.118;11.628;2023-03-01T04:27:20;27.90;;;21.05;;
1014;SDS011;8170;48.118;11.628;2023-03-01T04:28:23;23.98;;;19.23;;
1014;SDS011;8170;48.118;11.628;2023-03-01T04:29:27;27.30;;;20.25;;
1014;SDS011;8170;48.118;11.628;2023-03-01T04:30:29;28.65;;;20.23;;
1014;SDS011;8170;48.118;11.628;2023-03-01T04:31:36;26.85;;;21.38;;
1014;SDS011;8170;48.118;11.628;2023-03-01T04:32:39;35.72;;;20.75;;
1014;SDS011;8170;48.118;11.628;2023-03-01T04:33:42;23.23;;;18.85;;
1014;SDS011;8170;48.118;11.628;2023-03-01T04:34:47;29.10;;;20.75;;
1014;SDS011;8170;48.118;11.628;2023-03-01T04:35:50;26.67;;;21.15;;
1014;SDS011;8170;48.118;11.628;2023-03-01T04:36:53;26.50;;;21.48;;
1014;SDS011;8170;48.118;11.628;2023-03-01T04:37:56;29.95;;;21.35;;
1014;SDS011;8170;48.118;11.628;2023-03-01T04:38:58;26.35;;;20.98;;
1014;SDS011;8170;48.118;11.628;2023-03-01T04:40:01;28.25;;;20.58;;
1014;SDS011;8170;48.118;11.628;2023-03-01T04:41:14;27.63;;;20.10;;
1014;SDS011;8170;48.118;11.628;2023-03-01T04:42:19;25.67;;;20.13;;
1014;SDS011;8170;48.118;11.628;2023-03-01T04:43:21;24.83;;;20.88;;
1014;SDS011;8170;48.118;11.628;2023-03-01T04:44:24;26.95;;;21.35;;
1014;SDS011;8170;48.118;11.628;2023-03-01T04:45:26;26.20;;;19.90;;
1014;SDS011;8170;48.118;11.628;2023-03-01T04:46:29;31.67;;;21.75;;
1014;SDS011;8170;48.118;11.628;2023-03-01T04:47:31;26.15;;;20.52;;
1014;SDS011;8170;48.118;11.628;2023-03-01T04:48:35;26.75;;;21.13;;
1014;SDS011;8170;48.118;11.628;2023-03-01T04:49:37;30.70;;;21.02;;
1014;SDS011;8170;48.118;11.628;2023-03-01T04:50:42;31.05;;;21.30;;
1014;SDS011;8170;48.118;11.628;2023-03-01T04:51:44;26.73;;;21.63;;
1014;SDS011;8170;48.118;11.628;2023-03-01T04:52:47;25.05;;;19.10;;
1014;SDS011;8170;48.118;11.628;2023-03-01T04:53:49;29.10;;;21.17;;
1014;SDS011;8170;48.118;11.628;2023-03-01T04:54:52;26.95;;;21.08;;
1014;SDS011;8170;48.118;11.628;2023-03-01T04:55:54;27.95;;;19.90;;
1014;SDS011;8170;48.118;11.628;2023-03-01T04:56:59;30.08;;;22.70;;
1014;SDS011;8170;48.118;11.628;2023-03-01T04:58:01;26.98;;;20.52;;
1014;SDS011;8170;48.118;11.628;2023-03-01T04:59:04;27.15;;;20.20;;
1014;SDS011;8170;48.118;11.628;2023-03-01T05:00:07;29.85;;;20.45;;
1014;SDS011;8170;48.118;11.628;2023-03-01T05:01:22;26.88;;;20.25;;
1014;SDS011;8170;48.118;11.628;2023-03-01T05:02:25;28.52;;;21.27;;
1014;SDS011;8170;48.118;11.628;2023-03-01T05:03:27;29.30;;;22.25;;
1014;SDS011;8170;48.118;11.628;2023-03-01T05:04:30;27.27;;;20.38;;
1014;SDS011;8170;48.118;11.628;2023-03-01T05:05:33;32.15;;;20.15;;
1014;SDS011;8170;48.118;11.628;2023-03-01T05:06:39;24.55;;;19.70;;
1014;SDS011;8170;48.118;11.628;2023-03-01T05:07:41;29.45;;;22.00;;
1014;SDS011;8170;48.118;11.628;2023-03-01T05:08:44;27.80;;;20.35;;
1014;SDS011;8170;48.118;11.628;2023-03-01T05:09:48;26.80;;;20.90;;
1014;SDS011;8170;48.118;11.628;2023-03-01T05:10:50;27.10;;;21.58;;
1014;SDS011;8170;48.118;11.628;2023-03-01T05:11:54;28.55;;;21.40;;
1014;SDS011;8170;48.118;11.628;2023-03-01T05:12:57;27.63;;;20.58;;
1014;SDS011;8170;48.118;11.628;2023-03-01T05:14:00;28.70;;;21.77;;
1014;SDS011;8170;48.118;11.628;2023-03-01T05:15:02;30.63;;;21.88;;
1014;SDS011;8170;48.118;11.628;2023-03-01T05:16:08;30.90;;;20.95;;
1014;SDS011;8170;48.118;11.628;2023-03-01T05:17:13;31.15;;;22.02;;
1014;SDS011;8170;48.118;11.628;2023-03-01T05:18:15;24.65;;;19.60;;
1014;SDS011;8170;48.118;11.628;2023-03-01T05:19:18;25.30;;;19.00;;
1014;SDS011;8170;48.118;11.628;2023-03-01T05:20:24;28.33;;;19.08;;
1014;SDS011;8170;48.118;11.628;2023-03-01T05:21:28;26.13;;;20.50;;
1014;SDS011;8170;48.118;11.628;2023-03-01T05:22:31;27.65;;;20.63;;
1014;SDS011;8170;48.118;11.628;2023-03-01T05:23:34;28.70;;;21.27;;
1014;SDS011;8170;48.118;11.628;2023-03-01T05:24:37;30.17;;;19.48;;
1014;SDS011;8170;48.118;11.628;2023-03-01T05:25:40;25.05;;;19.80;;
1014;SDS011;8170;48.118;11.628;2023-03-01T05:26:44;26.52;;;20.23;;
1014;SDS011;8170;48.118;11.628;2023-03-01T05:27:46;26.92;;;20.60;;
1014;SDS011;8170;48.118;11.628;2023-03-01T05:28:50;28.92;;;21.38;;
1014;SDS011;8170;48.118;11.628;2023-03-01T05:29:52;27.05;;;20.90;;
1014;SDS011;8170;48.118;11.628;2023-03-01T05:30:56;28.27;;;21.20;;
1014;SDS011;8170;48.118;11.628;2023-03-01T05:31:59;29.85;;;21.42;;
1014;SDS011;8170;48.118;11.628;2023-03-01T05:33:04;27.77;;;19.92;;
1014;SDS011;8170;48.118;11.628;2023-03-01T05:34:06;28.27;;;21.55;;
1014;SDS011;8170;48.118;11.628;2023-03-01T05:35:10;30.23;;;21.77;;
1014;SDS011;8170;48.118;11.628;2023-03-01T05:36:14;29.85;;;22.42;;
1014;SDS011;8170;48.118;11.628;2023-03-01T05:37:17;27.55;;;21.40;;
1014;SDS011;8170;48.118;11.628;2023-03-01T05:38:22;28.55;;;21.75;;
1014;SDS011;8170;48.118;11.628;2023-03-01T05:39:26;27.33;;;20.98;;
1014;SDS011;8170;48.118;11.628;2023-03-01T05:40:29;26.70;;;20.60;;
1014;SDS011;8170;48.118;11.628;2023-03-01T05:41:32;29.85;;;21.80;;
1014;SDS011;8170;48.118;11.628;2023-03-01T05:42:34;28.90;;;21.20;;
1014;SDS011;8170;48.118;11.628;2023-03-01T05:43:37;29.77;;;20.52;;
1014;SDS011;8170;48.118;11.628;2023-03-01T05:44:43;28.50;;;22.02;;
1014;SDS011;8170;48.118;11.628;2023-03-01T05:45:45;30.90;;;20.88;;
1014;SDS011;8170;48.118;11.628;2023-03-01T05:46:49;28.25;;;19.92;;
1014;SDS011;8170;48.118;11.628;2023-03-01T05:47:51;25.95;;;21.35;;
1014;SDS011;8170;48.118;11.628;2023-03-01T05:48:56;26.17;;;19.98;;
1014;SDS011;8170;48.118;11.628;2023-03-01T05:49:58;30.40;;;21.52;;
1014;SDS011;8170;48.118;11.628;2023-03-01T05:51:01;26.60;;;20.10;;
1014;SDS011;8170;48.118;11.628;2023-03-01T05:52:03;30.35;;;22.02;;
1014;SDS011;8170;48.118;11.628;2023-03-01T05:53:08;28.83;;;21.55;;
1014;SDS011;8170;48.118;11.628;2023-03-01T05:54:13;26.75;;;21.38;;
1014;SDS011;8170;48.118;11.628;2023-03-01T05:55:17;27.60;;;20.63;;
1014;SDS011;8170;48.118;11.628;2023-03-01T05:56:21;29.88;;;21.00;;
1014;SDS011;8170;48.118;11.628;2023-03-01T05:57:24;30.30;;;23.20;;
1014;SDS011;8170;48.118;11.628;2023-03-01T05:58:29;31.45;;;20.85;;
1014;SDS011;8170;48.118;11.628;2023-03-01T05:59:32;28.00;;;21.80;;
1014;SDS011;8170;48.118;11.628;2023-03-01T06:00:34;28.70;;;21.13;;
1014;SDS011;8170;48.118;11.628;2023-03-01T06:01:37;29.35;;;20.45;;
1014;SDS011;8170;48.118;11.628;2023-03-01T06:02:39;30.98;;;22.55;;
1014;SDS011;8170;48.118;11.628;2023-03-01T06:03:43;28.10;;;21.95;;
1014;SDS011;8170;48.118;11.628;2023-03-01T06:04:45;33.80;;;21.13;;
1014;SDS011;8170;48.118;11.628;2023-03-01T06:05:48;30.15;;;21.38;;
1014;SDS011;8170;48.118;11.628;2023-03-01T06:06:51;28.67;;;21.70;;
1014;SDS011;8170;48.118;11.628;2023-03-01T06:07:54;26.15;;;20.08;;
1014;SDS011;8170;48.118;11.628;2023-03-01T06:08:59;28.95;;;20.65;;
1014;SDS011;8170;48.118;11.628;2023-03-01T06:10:05;25.73;;;20.42;;
1014;SDS011;8170;48.118;11.628;2023-03-01T06:11:09;27.42;;;21.23;;
1014;SDS011;8170;48.118;11.628;2023-03-01T06:12:13;28.92;;;21.45;;
1014;SDS011;8170;48.118;11.628;2023-03-01T06:13:15;30.55;;;21.15;;
1014;SDS011;8170;48.118;11.628;2023-03-01T06:14:18;27.02;;;20.77;;
1014;SDS011;8170;48.118;11.628;2023-03-01T06:15:22;29.40;;;22.30;;
1014;SDS011;8170;48.118;11.628;2023-03-01T06:16:25;30.35;;;22.58;;
1014;SDS011;8170;48.118;11.628;2023-03-01T06:17:28;27.67;;;20.70;;
1014;SDS011;8170;48.118;11.628;2023-03-01T06:18:33;29.42;;;21.25;;
1014;SDS011;8170;48.118;11.628;2023-03-01T06:19:35;28.73;;;22.20;;
1014;SDS011;8170;48.118;11.628;2023-03-01T06:20:38;27.55;;;20.50;;
1014;SDS011;8170;48.118;11.628;2023-03-01T06:21:41;30.05;;;21.42;;
1014;SDS011;8170;48.118;11.628;2023-03-01T06:22:43;31.13;;;22.38;;
1014;SDS011;8170;48.118;11.628;2023-03-01T06:23:47;29.88;;;22.40;;
1014;SDS011;8170;48.118;11.628;2023-03-01T06:24:49;29.05;;;20.45;;
1014;SDS011;8170;48.118;11.628;2023-03-01T06:25:54;29.63;;;21.55;;
1014;SDS011;8170;48.118;11.628;2023-03-01T06:26:57;29.98;;;23.02;;
1014;SDS011;8170;48.118;11.628;2023-03-01T06:27:59;30.00;;;21.40;;
1014;SDS011;8170;48.118;11.628;2023-03-01T06:29:02;30.35;;;21.25;;
1014;SDS011;8170;48.118;11.628;2023-03-01T06:30:05;31.38;;;21.30;;
1014;SDS011;8170;48.118;11.628;2023-03-01T06:31:09;30.50;;;22.20;;
1014;SDS011;8170;48.118;11.628;2023-03-01T06:32:12;30.30;;;20.05;;
1014;SDS011;8170;48.118;11.628;2023-03-01T06:33:15;27.15;;;21.05;;
1014;SDS011;8170;48.118;11.628;2023-03-01T06:34:20;29.08;;;21.40;;
1014;SDS011;8170;48.118;11.628;2023-03-01T06:35:23;30.52;;;21.27;;
1014;SDS011;8170;48.118;11.628;2023-03-01T06:36:31;29.70;;;21.80;;
1014;SDS011;8170;48.118;11.628;2023-03-01T06:37:33;29.00;;;22.42;;
1014;SDS011;8170;48.118;11.628;2023-03-01T06:38:37;30.00;;;21.60;;
1014;SDS011;8170;48.118;11.628;2023-03-01T06:39:39;28.88;;;20.50;;
1014;SDS011;8170;48.118;11.628;2023-03-01T06:40:42;27.70;;;20.00;;